Tiempo atmosférico en la estación meteorológica de Sariñena, Depósito Agua, Huesca (302 m.)



Fecha
DESCASC
Temp. máxima en grados centígrados (hora)
DESCASC
Temp. mínima en grados centígrados (hora)
DESCASC
Temp. media en grados centígrados
DESCASC
Racha de viento máxima en m/sg (hora)
DESCASC
Velocidad máxima media en intervalos de 10 minutos(hora)
DESCASC
Precipitaciones diarias en mm
DESCASC
Precipitaciones de 00:00 a 06:00 en mm
DESCASC
Precipitaciones de 06:00 a 12:00 en mm
DESCASC
Precipitaciones de 12:00 a 18:00 en mm
DESCASC
Precipitaciones de 18:00 a 24:00 en mm
DESCASC
12-01-2021 -0.4 (15:40) -7.6 (-00:0) -4 2.22 (00:40) 1.39 (22:00) 0 0 0 0 0
11-01-2021 1.5 (16:40) -8 (-00:0) -3.3 3.89 (01:10) 2.22 (00:30) 0 0 0 0 0
08-01-2021 1.7 (16:30) -6.3 (-00:0) -2.3 3.61 (12:50) 1.94 (04:00) 0 0 0 0 0
07-01-2021 1.6 (15:30) -4.7 (-00:0) -1.5 4.17 (15:40) 2.5 (15:50) 0 0 0 0 0
13-01-2021 5.2 (16:10) -6.7 (-00:0) -0.8 2.78 (16:20) 1.67 (11:20) 0 0 0 0 0
27-12-2020 2.7 (14:00) -4 (-00:0) -0.6 3.61 (23:30) 2.5 (23:30) 0 0 0 0 0
06-01-2021 5.4 (15:50) -6.3 (-00:0) -0.5 4.72 (16:00) 2.78 (16:20) 0 0 0 0 0
09-01-2021 0.6 (16:00) -1.1 (-00:0) -0.3 4.72 (15:30) 2.5 (15:00) 26.8 2 8.8 5.4 10.6
10-01-2021 1.7 (13:10) -0.2 (23:30) 0.8 5.56 (13:40) 2.78 (12:00) 11.6 10.2 1.4 0 0
14-01-2021 6.5 (23:40) -3.3 (00:10) 1.6 11.67 (23:50) 7.22 (23:59) 0 0 0 0 0
05-01-2021 7.5 (16:10) -2.9 (-00:0) 2.3 9.72 (15:30) 5.28 (15:00) 0 0 0 0 0
04-01-2021 6.8 (13:10) -1.8 (-00:0) 2.5 7.78 (14:30) 5 (14:30) 0 0 0 0 0
20-01-2021 6.1 (14:00) -0.8 (-00:0) 2.6 4.72 (13:40) 2.5 (13:30) 1.4 0 0 0.6 0.8
03-01-2021 8.1 (16:00) -1.4 (-00:0) 3.4 16.39 (14:50) 9.72 (14:50) 0 0 0 0 0
19-01-2021 10.3 (16:30) -2.3 (-00:0) 4 3.89 (16:10) 2.5 (15:30) 0 0 0 0 0
02-01-2021 9.3 (14:30) 0.1 (00:00) 4.7 13.06 (17:30) 8.06 (17:20) 0 0 0 0 0
28-12-2020 10.5 (14:20) -0.8 (-00:0) 4.8 15 (10:40) 8.33 (10:40) 1.6 1.6 0 0 0
26-12-2020 9.5 (14:20) 0 (00:00) 4.8 13.06 (04:40) 7.22 (04:40) 0 0 0 0 0
31-12-2020 9.9 (14:40) 0 (00:00) 4.9 4.44 (00:10) 2.78 (00:10) 0.2 0 0 0 0.2
18-01-2021 10.4 (15:50) -0.5 (-00:0) 4.9 5.83 (01:10) 3.61 (01:10) 0 0 0 0 0
01-01-2021 8.5 (15:00) 1.9 (00:00) 5.2 12.22 (15:30) 7.22 (13:10) 0 0 0 0 0
25-12-2020 7.9 (14:00) 2.6 (00:00) 5.3 18.89 (14:20) 10.56 (15:50) 0 0 0 0 0
29-12-2020 9.5 (15:30) 1.5 (00:00) 5.5 13.33 (14:30) 7.22 (14:40) 0 0 0 0 0
30-12-2020 9.2 (15:50) 3.1 (00:00) 6.1 16.11 (12:50) 10 (13:00) 0 0 0 0 0
16-01-2021 13.4 (17:00) 0.3 (00:00) 6.8 11.94 (03:10) 7.22 (01:40) 0 0 0 0 0
24-12-2020 11.3 (14:10) 2.9 (00:00) 7.1 11.94 (21:00) 6.39 (15:10) 0 0 0 0 0
17-01-2021 14.4 (15:20) 0.8 (00:00) 7.6 18.61 (14:30) 10.56 (14:30) 0 0 0 0 0
21-01-2021 12.3 (14:00) 2.9 (00:00) 7.6 4.17 (18:20) 2.5 (15:50) 0.4 0.2 0 0 0.2
23-12-2020 12.8 (16:00) 2.8 (00:00) 7.8 3.61 (22:10) 1.67 (22:00) 0.2 0 0 0 0.2
15-01-2021 11.6 (14:10) 6 (00:00) 8.8 17.5 (15:20) 10.83 (16:40) 0 0 0 0 0

Gráficas

Temp. máximas Temp. mínimas Temp. medias Precipitaciones Rachas de viento máximas Velocidades máximas media en intervalos de 10 minutos

Datos horarios

Fecha y hora oficial Temperatura (ºC) Velocidad del viento (km/h) Dirección del viento Racha (km/h) Dirección de racha Precipitación (mm) Presión (hPa) Tendencia (hPa) Humedad (%)
2021-01-21 23:00:00 7.4 3 Sudoeste 6 Sudoeste 0 -- -- 93
2021-01-21 22:00:00 8.1 0 Calma 8 Sur 0 -- -- 91
2021-01-21 21:00:00 8.6 5 Nordeste 9 Norte 0 -- -- 89
2021-01-21 20:00:00 9 5 Norte 10 Este 0.2 -- -- 88
2021-01-21 19:00:00 9 5 Este 15 Este 0 -- -- 86
2021-01-21 18:00:00 9.4 9 Sudeste 14 Sudeste 0 -- -- 86
2021-01-21 17:00:00 10.3 4 Este 12 Sudeste 0 -- -- 84
2021-01-21 16:00:00 10.9 8 Este 12 Sudeste 0 -- -- 81
2021-01-21 15:00:00 12.3 4 Sudeste 9 Sudeste 0 -- -- 74
2021-01-21 14:00:00 12.3 0 Calma 8 Sudeste 0 -- -- 70
2021-01-21 13:00:00 11 5 Sudeste 8 Sudeste 0 -- -- 78
2021-01-21 12:00:00 8.7 3 Este 6 Este 0 -- -- 88
2021-01-21 11:00:00 6.5 2 Sudeste 5 Oeste 0 -- -- 98
2021-01-21 10:00:00 4.4 0 Calma 5 Norte 0 -- -- 99
2021-01-21 09:00:00 3.1 5 Oeste 8 Oeste 0 -- -- 99
2021-01-21 08:00:00 3.6 2 Norte 8 Oeste 0 -- -- 98
2021-01-21 07:00:00 3.7 0 Calma 5 Norte 0 -- -- 98
2021-01-21 06:00:00 3.4 0 Calma 3 Nordeste 0 -- -- 98
2021-01-21 05:00:00 3.8 0 Calma 2 Nordeste 0 -- -- 98
2021-01-21 04:00:00 3.7 0 Calma 3 Norte 0 -- -- 98
2021-01-21 03:00:00 4 0 Calma 4 Sur 0 -- -- 97
2021-01-21 02:00:00 4.3 2 Noroeste 5 Sudoeste 0 -- -- 97
2021-01-21 01:00:00 4.6 0 Calma 4 Sudoeste 0.2 -- -- 97
2021-01-21 00:00:00 4.6 0 Calma 3 Sudeste 0.2 -- -- 97
2021-01-20 23:00:00 4.7 0 Calma 4 Oeste 0 -- -- 97
2021-01-20 22:00:00 4.8 0 Calma 4 Noroeste 0 -- -- 96
2021-01-20 21:00:00 4.7 2 Noroeste 3 Norte 0.4 -- -- 96
2021-01-20 20:00:00 4.8 2 Sur 6 Sudoeste 0.2 -- -- 94
2021-01-20 19:00:00 5.2 3 Oeste 6 Oeste 0 -- -- 95
2021-01-20 18:00:00 5.6 3 Sudeste 7 Sur 0 -- -- 94
2021-01-20 17:00:00 5.9 2 Oeste 6 Este 0 -- -- 93
2021-01-20 16:00:00 5.8 2 Nordeste 10 Sur 0 -- -- 91
2021-01-20 15:00:00 6.1 5 Sudeste 12 Sudeste 0 -- -- 90
2021-01-20 14:00:00 6.1 6 Sudeste 17 Este 0.6 -- -- 92
2021-01-20 13:00:00 4.9 4 Este 10 Sur 0 -- -- 90
2021-01-20 12:00:00 4.6 4 Sur 11 Este 0 -- -- 91
2021-01-20 11:00:00 2.2 5 Nordeste 10 Nordeste 0 -- -- 98
2021-01-20 10:00:00 0.3 5 Oeste 9 Oeste 0 -- -- 98
2021-01-20 09:00:00 -0.7 2 Norte 3 Norte 0 -- -- 97
2021-01-20 08:00:00 -0.6 0 Calma 5 Nordeste 0 -- -- 97
2021-01-20 07:00:00 0 2 Noroeste 5 Oeste 0 -- -- 97
2021-01-20 06:00:00 -0.2 5 Norte 8 Nordeste 0 -- -- 96
2021-01-20 05:00:00 0.3 0 Calma 6 Oeste 0 -- -- 97
2021-01-20 04:00:00 0.3 2 Oeste 4 Sudoeste 0 -- -- 95
2021-01-20 03:00:00 1 3 Noroeste 8 Oeste 0 -- -- 95
2021-01-20 02:00:00 1.8 0 Calma 6 Oeste 0 -- -- 96
2021-01-20 01:00:00 0.9 0 Calma 5 Norte 0 -- -- 96
2021-01-20 00:00:00 0.6 3 Nordeste 5 Norte 0 -- -- 94
2021-01-19 23:00:00 0.9 3 Norte 6 Oeste 0 -- -- 94
2021-01-19 22:00:00 1.7 2 Sur 6 Norte 0 -- -- 91
2021-01-19 21:00:00 2.7 2 Norte 6 Noroeste 0 -- -- 90
2021-01-19 20:00:00 4.2 2 Nordeste 4 Nordeste 0 -- -- 87
2021-01-19 19:00:00 5.5 0 Calma 5 Este 0 -- -- 85
2021-01-19 18:00:00 8 4 Este 10 Este 0 -- -- 75
2021-01-19 17:00:00 9.7 8 Este 14 Sudeste 0 -- -- 70
2021-01-19 16:00:00 10.1 8 Este 13 Este 0 -- -- 68
2021-01-19 15:00:00 9.7 6 Este 13 Sudeste 0 -- -- 71
2021-01-19 14:00:00 8.1 5 Sudeste 9 Este 0 -- -- 76
2021-01-19 13:00:00 5.2 0 Calma 7 Sudoeste 0 -- -- 85
2021-01-19 12:00:00 2.2 5 Sudoeste 8 Oeste 0 -- -- 96
2021-01-19 11:00:00 -0.1 2 Oeste 5 Oeste 0 -- -- 99
2021-01-19 10:00:00 -1.5 0 Calma 6 Oeste 0 -- -- 99
2021-01-19 09:00:00 -2.2 4 Oeste 6 Oeste 0 -- -- 98
2021-01-19 08:00:00 -2 3 Noroeste 5 Noroeste 0 -- -- 98
2021-01-19 07:00:00 -1.6 2 Noroeste 7 Oeste 0 -- -- 98
2021-01-19 06:00:00 -1.4 0 Calma 5 Noroeste 0 -- -- 98
2021-01-19 05:00:00 -0.8 2 Noroeste 6 Norte 0 -- -- 98
2021-01-19 04:00:00 -0.9 2 Noroeste 8 Norte 0 -- -- 97
2021-01-19 03:00:00 -1.1 5 Noroeste 9 Noroeste 0 -- -- 95
2021-01-19 02:00:00 -0.4 5 Noroeste 10 Norte 0 -- -- 94
2021-01-19 01:00:00 0.6 6 Noroeste 10 Noroeste 0 -- -- 93
2021-01-19 00:00:00 1.4 4 Noroeste 10 Norte 0 -- -- 93
2021-01-18 23:00:00 1.7 6 Norte 9 Norte 0 -- -- 93
2021-01-18 22:00:00 2.3 3 Norte 6 Noroeste 0 -- -- 92
2021-01-18 21:00:00 3.4 3 Noroeste 5 Este 0 -- -- 90
2021-01-18 20:00:00 4.9 2 Este 9 Este 0 -- -- 85
2021-01-18 19:00:00 5.8 4 Este 12 Este 0 -- -- 83
2021-01-18 18:00:00 7.5 6 Este 18 Este 0 -- -- 77
2021-01-18 17:00:00 9.3 11 Este 17 Este 0 -- -- 68
2021-01-18 16:00:00 10.3 7 Este 12 Este 0 -- -- 65
2021-01-18 15:00:00 9.8 2 Noroeste 8 Sudoeste 0 -- -- 61
2021-01-18 14:00:00 8.6 2 Noroeste 10 Sudoeste 0 -- -- 65
2021-01-18 13:00:00 7.8 4 Sur 9 Sudeste 0 -- -- 78
2021-01-18 12:00:00 4.3 0 Calma 5 Sur 0 -- -- 96
2021-01-18 11:00:00 3.6 4 Sudeste 8 Sudeste 0 -- -- 96
2021-01-18 10:00:00 1.6 0 Calma 5 Nordeste 0 -- -- 96
2021-01-18 09:00:00 0 0 Calma 6 Norte 0 -- -- 95
2021-01-18 08:00:00 -0.1 3 Sudeste 4 Sudeste 0 -- -- 94
2021-01-18 07:00:00 0.2 3 Norte 5 Norte 0 -- -- 91
2021-01-18 06:00:00 2 0 Calma 8 Norte 0 -- -- 87
2021-01-18 05:00:00 3.7 0 Calma 12 Noroeste 0 -- -- 84
2021-01-18 04:00:00 4.2 5 Noroeste 10 Norte 0 -- -- 88
2021-01-18 03:00:00 4.8 6 Noroeste 16 Noroeste 0 -- -- 89
2021-01-18 02:00:00 6.2 10 Noroeste 21 Noroeste 0 -- -- 86
2021-01-18 01:00:00 7.1 12 Oeste 20 Oeste 0 -- -- 82
2021-01-18 00:00:00 8 10 Oeste 23 Oeste 0 -- -- 80
2021-01-17 23:00:00 8.9 16 Oeste 30 Noroeste 0 -- -- 78
2021-01-17 22:00:00 9.7 18 Oeste 36 Oeste 0 -- -- 75
2021-01-17 21:00:00 10.3 21 Oeste 45 Oeste 0 -- -- 74
2021-01-17 20:00:00 10.9 24 Oeste 53 Oeste 0 -- -- 72
2021-01-17 19:00:00 11.5 30 Oeste 50 Oeste 0 -- -- 70
2021-01-17 18:00:00 12.3 23 Oeste 50 Oeste 0 -- -- 67
2021-01-17 17:00:00 13.5 26 Oeste 50 Oeste 0 -- -- 62
2021-01-17 16:00:00 14.3 27 Oeste 56 Oeste 0 -- -- 57
2021-01-17 15:00:00 14.2 36 Oeste 67 Oeste 0 -- -- 56
2021-01-17 14:00:00 14.1 30 Oeste 59 Oeste 0 -- -- 56
2021-01-17 13:00:00 13.4 34 Oeste 62 Oeste 0 -- -- 52
2021-01-17 12:00:00 12.8 32 Oeste 54 Oeste 0 -- -- 56
2021-01-17 11:00:00 10.5 25 Oeste 45 Oeste 0 -- -- 52
2021-01-17 10:00:00 10 26 Oeste 42 Oeste 0 -- -- 49
2021-01-17 09:00:00 7.1 22 Oeste 36 Oeste 0 -- -- 57
2021-01-17 08:00:00 5.1 9 Noroeste 23 Noroeste 0 -- -- 66
2021-01-17 07:00:00 5.5 14 Oeste 28 Noroeste 0 -- -- 61
2021-01-17 06:00:00 5.3 11 Noroeste 22 Oeste 0 -- -- 61
2021-01-17 05:00:00 2.6 5 Noroeste 13 Noroeste 0 -- -- 68
2021-01-17 04:00:00 1.8 0 Calma 8 Norte 0 -- -- 75
2021-01-17 03:00:00 2.2 8 Norte 10 Norte 0 -- -- 71
2021-01-17 02:00:00 2.1 4 Norte 10 Norte 0 -- -- 75
2021-01-17 01:00:00 1 4 Norte 6 Norte 0 -- -- 89
2021-01-17 00:00:00 1.4 4 Norte 8 Norte 0 -- -- 87
2021-01-16 23:00:00 1.9 0 Calma 9 Norte 0 -- -- 88
2021-01-16 22:00:00 2.5 3 Noroeste 7 Sudoeste 0 -- -- 86
2021-01-16 21:00:00 3.9 0 Calma 8 Oeste 0 -- -- 81
2021-01-16 20:00:00 5.8 3 Nordeste 8 Noroeste 0 -- -- 75
2021-01-16 19:00:00 7.2 6 Este 10 Este 0 -- -- 69
2021-01-16 18:00:00 9.5 4 Este 12 Sudeste 0 -- -- 63
2021-01-16 17:00:00 13.4 5 Sur 17 Oeste 0 -- -- 42
2021-01-16 16:00:00 12.7 7 Oeste 17 Oeste 0 -- -- 40
2021-01-16 15:00:00 11.7 9 Oeste 17 Oeste 0 -- -- 45
2021-01-16 14:00:00 10.6 9 Oeste 17 Noroeste 0 -- -- 47
2021-01-16 13:00:00 9.1 3 Sudoeste 8 Sudoeste 0 -- -- 59
2021-01-16 12:00:00 6.7 3 Noroeste 9 Oeste 0 -- -- 67
2021-01-16 11:00:00 4.1 4 Nordeste 17 Norte 0 -- -- 73
2021-01-16 10:00:00 1.5 8 Norte 16 Norte 0 -- -- 78
2021-01-16 09:00:00 0.4 7 Norte 14 Noroeste 0 -- -- 81
2021-01-16 08:00:00 1.8 4 Noroeste 8 Noroeste 0 -- -- 81
2021-01-16 07:00:00 2.7 3 Este 17 Noroeste 0 -- -- 79
2021-01-16 06:00:00 4.1 9 Noroeste 36 Oeste 0 -- -- 74
2021-01-16 05:00:00 4.8 18 Oeste 35 Oeste 0 -- -- 73
2021-01-16 04:00:00 5.4 21 Oeste 43 Oeste 0 -- -- 70
2021-01-16 03:00:00 5.7 25 Oeste 42 Oeste 0 -- -- 70
2021-01-16 02:00:00 5.9 24 Oeste 42 Oeste 0 -- -- 72
2021-01-16 01:00:00 6 23 Oeste 41 Oeste 0 -- -- 72
2021-01-16 00:00:00 6 22 Oeste 42 Oeste 0 -- -- 69
2021-01-15 23:00:00 6.1 23 Oeste 44 Oeste 0 -- -- 71
2021-01-15 22:00:00 6.5 25 Oeste 51 Oeste 0 -- -- 71
2021-01-15 21:00:00 6.8 26 Oeste 53 Oeste 0 -- -- 73
2021-01-15 20:00:00 7.1 29 Oeste 54 Oeste 0 -- -- 70
2021-01-15 19:00:00 7.6 33 Oeste 58 Oeste 0 -- -- 69
2021-01-15 18:00:00 8.6 35 Oeste 60 Oeste 0 -- -- 66
2021-01-15 17:00:00 10 38 Oeste 62 Oeste 0 -- -- 61
2021-01-15 16:00:00 11.4 35 Oeste 63 Oeste 0 -- -- 55
2021-01-15 15:00:00 11.4 32 Oeste 59 Oeste 0 -- -- 59
2021-01-15 14:00:00 11.5 31 Oeste 59 Oeste 0 -- -- 57
2021-01-15 13:00:00 10.7 29 Oeste 61 Oeste 0 -- -- 59
2021-01-15 12:00:00 9 35 Oeste 59 Oeste 0 -- -- 69
2021-01-15 11:00:00 7.8 33 Oeste 58 Oeste 0 -- -- 70
2021-01-15 10:00:00 7.3 28 Oeste 51 Oeste 0 -- -- 72
2021-01-15 09:00:00 6.3 24 Oeste 40 Oeste 0 -- -- 75
2021-01-15 08:00:00 6.3 27 Oeste 52 Oeste 0 -- -- 76
2021-01-15 07:00:00 6.4 32 Oeste 50 Oeste 0 -- -- 78
2021-01-15 06:00:00 6.4 29 Oeste 54 Oeste 0 -- -- 77
2021-01-15 05:00:00 6.3 30 Oeste 51 Oeste 0 -- -- 75
2021-01-15 04:00:00 6.2 24 Oeste 44 Oeste 0 -- -- 74
2021-01-15 03:00:00 6.4 26 Oeste 46 Oeste 0 -- -- 76
2021-01-15 02:00:00 6.6 27 Oeste 44 Oeste 0 -- -- 78
2021-01-15 01:00:00 6.6 25 Oeste 45 Noroeste 0 -- -- 81
2021-01-15 00:00:00 6.5 26 Oeste 42 Oeste 0 -- -- 84
2021-01-14 23:00:00 6.2 24 Oeste 39 Oeste 0 -- -- 85
2021-01-14 22:00:00 4.1 8 Oeste 18 Oeste 0 -- -- 100
2021-01-14 21:00:00 -1 3 Sudeste 8 Oeste 0 -- -- 99
2021-01-14 20:00:00 -1 0 Calma 8 Este 0 -- -- 98
2021-01-14 19:00:00 -0.5 5 Este 9 Sudeste 0 -- -- 98
2021-01-14 18:00:00 0.4 3 Sudeste 8 Sudeste 0 -- -- 97
2021-01-14 17:00:00 1.2 2 Este 7 Sur 0 -- -- 96
2021-01-14 16:00:00 1.8 2 Este 8 Sudeste 0 -- -- 96
2021-01-14 15:00:00 1.7 2 Este 8 Este 0 -- -- 95
2021-01-14 14:00:00 1.3 4 Este 13 Sudeste 0 -- -- 95
2021-01-14 13:00:00 1.3 4 Sudeste 9 Este 0 -- -- 97
2021-01-14 12:00:00 0.8 0 Calma 6 Nordeste 0 -- -- 99
2021-01-14 11:00:00 0.3 0 Calma 6 Sudoeste 0 -- -- 99
2021-01-14 10:00:00 -0.6 0 Calma 6 Sur 0 -- -- 99
2021-01-14 09:00:00 -1.7 0 Calma 3 Nordeste 0 -- -- 99
2021-01-14 08:00:00 -2.1 0 Calma 3 Sur 0 -- -- 98
2021-01-14 07:00:00 -2.3 0 Calma 3 Oeste 0 -- -- 98
2021-01-14 06:00:00 -2.5 2 Oeste 3 Oeste 0 -- -- 99
2021-01-14 05:00:00 -2.8 2 Oeste 5 Oeste 0 -- -- 99
2021-01-14 04:00:00 -3.1 4 Oeste 8 Sudoeste 0 -- -- 98
2021-01-14 03:00:00 -2.5 3 Noroeste 7 Norte 0 -- -- 98
2021-01-14 02:00:00 -2.8 3 Norte 5 Norte 0 -- -- 98
2021-01-14 01:00:00 -3.1 0 Calma 6 Norte 0 -- -- 98
2021-01-14 00:00:00 -3 4 Norte 6 Norte 0 -- -- 96
2021-01-13 23:00:00 -2.3 3 Norte 5 Norte 0 -- -- 97
2021-01-13 22:00:00 -1.8 3 Norte 6 Norte 0 -- -- 96
2021-01-13 21:00:00 -1 2 Norte 6 Noroeste 0 -- -- 95
2021-01-13 20:00:00 -0.1 0 Calma 4 Norte 0 -- -- 95
2021-01-13 19:00:00 1.2 0 Calma 4 Noroeste 0 -- -- 92
2021-01-13 18:00:00 3.4 0 Calma 8 Sudeste 0 -- -- 86
2021-01-13 17:00:00 5 5 Sudeste 10 Este 0 -- -- 79
2021-01-13 16:00:00 5.1 6 Sudeste 9 Sudeste 0 -- -- 76
2021-01-13 15:00:00 4.8 4 Sudeste 9 Sudeste 0 -- -- 74
2021-01-13 14:00:00 3.5 5 Este 9 Sudeste 0 -- -- 80
2021-01-13 13:00:00 2.8 5 Sudeste 8 Este 0 -- -- 77
2021-01-13 12:00:00 0.4 3 Este 9 Sur 0 -- -- 82
2021-01-13 11:00:00 -0.8 3 Sur 7 Norte 0 -- -- 92
2021-01-13 10:00:00 -3.8 2 Norte 4 Norte 0 -- -- 97
2021-01-13 09:00:00 -6.3 4 Norte 5 Nordeste 0 -- -- 97
2021-01-13 08:00:00 -6.5 3 Nordeste 5 Nordeste 0 -- -- 95
2021-01-13 07:00:00 -6.2 0 Calma 4 Norte 0 -- -- 95
2021-01-13 06:00:00 -6 0 Calma 6 Sudoeste 0 -- -- 95
2021-01-13 05:00:00 -5.8 2 Sur 5 Norte 0 -- -- 94
2021-01-13 04:00:00 -5.6 2 Nordeste 6 Norte 0 -- -- 95
2021-01-13 03:00:00 -5.7 3 Nordeste 5 Norte 0 -- -- 95
2021-01-13 02:00:00 -5.2 0 Calma 5 Nordeste 0 -- -- 95
2021-01-13 01:00:00 -5.4 6 Norte 7 Norte 0 -- -- 96
2021-01-13 00:00:00 -4.9 0 Calma 4 Este 0 -- -- 95
2021-01-12 23:00:00 -4.6 3 Este 8 Este 0 -- -- 95
2021-01-12 22:00:00 -4.3 5 Norte 8 Norte 0 -- -- 95
2021-01-12 21:00:00 -4.1 5 Norte 7 Norte 0 -- -- 95
2021-01-12 20:00:00 -3.6 5 Norte 6 Nordeste 0 -- -- 96
2021-01-12 19:00:00 -2.9 0 Calma 3 Oeste 0 -- -- 95
2021-01-12 18:00:00 -2 3 Oeste 6 Sudoeste 0 -- -- 93
2021-01-12 17:00:00 -0.9 4 Oeste 6 Oeste 0 -- -- 89
2021-01-12 16:00:00 -0.5 3 Oeste 6 Sudoeste 0 -- -- 89
2021-01-12 15:00:00 -0.9 2 Noroeste 4 Este 0 -- -- 92
2021-01-12 14:00:00 -2.1 2 Norte 4 Norte 0 -- -- 96
2021-01-12 13:00:00 -2.5 2 Sudoeste 5 Sudoeste 0 -- -- 97
2021-01-12 12:00:00 -3.9 3 Norte 5 Noroeste 0 -- -- 97
2021-01-12 11:00:00 -4.7 0 Calma 5 Oeste 0 -- -- 96
2021-01-12 10:00:00 -6 3 Oeste 7 Oeste 0 -- -- 97
2021-01-12 09:00:00 -5.8 3 Oeste 6 Norte 0 -- -- 97
2021-01-12 08:00:00 -6.1 3 Norte 5 Norte 0 -- -- 96
2021-01-12 07:00:00 -6.7 0 Calma 6 Oeste 0 -- -- 95
2021-01-12 06:00:00 -6.8 4 Oeste 6 Oeste 0 -- -- 96
2021-01-12 05:00:00 -7.1 3 Norte 5 Norte 0 -- -- 96
2021-01-12 04:00:00 -7.5 0 Calma 6 Noroeste 0 -- -- 94
2021-01-12 03:00:00 -7 5 Norte 8 Norte 0 -- -- 96
2021-01-12 02:00:00 -7.4 0 Calma 5 Norte 0 -- -- 93
2021-01-12 01:00:00 -6.9 0 Calma 8 Norte 0 -- -- 91
2021-01-12 00:00:00 -5.4 3 Norte 8 Oeste 0 -- -- 90
2021-01-11 23:00:00 -3.9 4 Oeste 11 Oeste 0 -- -- 88
2021-01-11 22:00:00 -4.7 0 Calma 6 Oeste 0 -- -- 94
2021-01-11 21:00:00 -4.2 4 Oeste 6 Oeste 0 -- -- 95
2021-01-11 20:00:00 -3.5 2 Sudoeste 6 Sudoeste 0 -- -- 93
2021-01-11 19:00:00 -2.2 3 Norte 5 Norte 0 -- -- 91
2021-01-11 18:00:00 -0.5 3 Nordeste 5 Este 0 -- -- 85
2021-01-11 17:00:00 1.4 0 Calma 6 Oeste 0 -- -- 76
2021-01-11 16:00:00 1 3 Oeste 7 Oeste 0 -- -- 79
2021-01-11 15:00:00 0.7 4 Noroeste 9 Noroeste 0 -- -- 81
2021-01-11 14:00:00 0.4 5 Noroeste 12 Oeste 0 -- -- 83
2021-01-11 13:00:00 -0.9 5 Oeste 9 Oeste 0 -- -- 86
2021-01-11 12:00:00 -2.5 3 Noroeste 6 Oeste 0 -- -- 81
2021-01-11 11:00:00 -4.2 2 Norte 6 Norte 0 -- -- 95
2021-01-11 10:00:00 -6.7 3 Noroeste 10 Oeste 0 -- -- 95
2021-01-11 09:00:00 -8 5 Oeste 9 Oeste 0 -- -- 96
2021-01-11 08:00:00 -5.7 0 Calma 4 Noroeste 0 -- -- 90
2021-01-11 07:00:00 -5 2 Noroeste 5 Noroeste 0 -- -- 87
2021-01-11 06:00:00 -4.5 2 Noroeste 7 Noroeste 0 -- -- 88
2021-01-11 05:00:00 -3.8 0 Calma 9 Noroeste 0 -- -- 86
2021-01-11 04:00:00 -2.6 4 Noroeste 13 Noroeste 0 -- -- 83
2021-01-11 03:00:00 -2.6 8 Noroeste 13 Oeste 0 -- -- 84
2021-01-11 02:00:00 -2.4 3 Noroeste 14 Oeste 0 -- -- 85
2021-01-11 01:00:00 -1.4 6 Noroeste 13 Oeste 0 -- -- 84
2021-01-11 00:00:00 -0.2 6 Oeste 11 Noroeste 0 -- -- 86
2021-01-10 23:00:00 0 6 Noroeste 12 Noroeste 0 -- -- 85
2021-01-10 22:00:00 0.3 7 Oeste 16 Oeste 0 -- -- 84
2021-01-10 21:00:00 0.7 7 Oeste 15 Oeste 0 -- -- 85
2021-01-10 20:00:00 0.7 6 Oeste 12 Oeste 0 -- -- 92
2021-01-10 19:00:00 0.8 2 Noroeste 4 Noroeste 0 -- -- 93
2021-01-10 18:00:00 1.2 0 Calma 3 Norte 0 -- -- 92
2021-01-10 17:00:00 1.6 2 Noroeste 5 Oeste 0 -- -- 90
2021-01-10 16:00:00 1.4 3 Noroeste 12 Oeste 0 -- -- 91
2021-01-10 15:00:00 1.4 6 Noroeste 16 Noroeste 0 -- -- 89
2021-01-10 14:00:00 1.5 9 Noroeste 20 Oeste 0 -- -- 87
2021-01-10 13:00:00 1.5 9 Oeste 15 Oeste 0 -- -- 89
2021-01-10 12:00:00 1.1 10 Oeste 16 Oeste 0 -- -- 92
2021-01-10 11:00:00 0.8 6 Oeste 12 Oeste 0 -- -- 95
2021-01-10 10:00:00 0.6 2 Oeste 14 Oeste 0 -- -- 97
2021-01-10 09:00:00 0.2 6 Oeste 9 Oeste 0.4 -- -- 98
2021-01-10 08:00:00 0.1 4 Noroeste 7 Noroeste 0.4 -- -- 98
2021-01-10 07:00:00 0.1 3 Noroeste 5 Oeste 0.6 -- -- 98
2021-01-10 06:00:00 0.1 3 Noroeste 4 Oeste 0.6 -- -- 98
2021-01-10 05:00:00 0.1 2 Noroeste 4 Norte 1 -- -- 98
2021-01-10 04:00:00 0.1 2 Norte 4 Noroeste 2 -- -- 98
2021-01-10 03:00:00 0.1 0 Calma 4 Oeste 2.4 -- -- 98
2021-01-10 02:00:00 0.1 3 Oeste 8 Oeste 2.2 -- -- 98
2021-01-10 01:00:00 0.1 4 Oeste 15 Oeste 2 -- -- 97
2021-01-10 00:00:00 0.3 8 Oeste 14 Noroeste 2 -- -- 97
2021-01-09 23:00:00 0.2 8 Oeste 15 Noroeste 2.2 -- -- 97
2021-01-09 22:00:00 0.3 7 Noroeste 16 Oeste 2.2 -- -- 97
2021-01-09 21:00:00 0.2 7 Noroeste 14 Noroeste 1.2 -- -- 97
2021-01-09 20:00:00 0.3 4 Sudoeste 12 Oeste 1.6 -- -- 97
2021-01-09 19:00:00 0.3 6 Noroeste 14 Noroeste 1.4 -- -- 97
2021-01-09 18:00:00 0.1 6 Noroeste 12 Oeste 1.6 -- -- 97
2021-01-09 17:00:00 0.2 5 Oeste 14 Oeste 1.2 -- -- 97
2021-01-09 16:00:00 0.6 8 Noroeste 17 Oeste 0.4 -- -- 96
2021-01-09 15:00:00 0.4 9 Noroeste 15 Oeste 0.8 -- -- 96
2021-01-09 14:00:00 0.5 7 Oeste 15 Oeste 0.8 -- -- 95
2021-01-09 13:00:00 0.5 7 Oeste 12 Oeste 0.6 -- -- 96
2021-01-09 12:00:00 0.5 4 Oeste 9 Oeste 0.8 -- -- 96
2021-01-09 11:00:00 0.3 3 Oeste 8 Noroeste 2.6 -- -- 97
2021-01-09 10:00:00 0.1 5 Noroeste 8 Oeste 1 -- -- 97
2021-01-09 09:00:00 0 4 Noroeste 6 Oeste 1.6 -- -- 97
2021-01-09 08:00:00 -0.3 3 Oeste 7 Noroeste 1.4 -- -- 97
2021-01-09 07:00:00 -0.6 3 Norte 7 Norte 1.4 -- -- 97
2021-01-09 06:00:00 -0.7 2 Noroeste 6 Oeste 1 -- -- 96
2021-01-09 05:00:00 -0.8 3 Noroeste 8 Noroeste 0.2 -- -- 96
2021-01-09 04:00:00 -0.9 4 Oeste 9 Oeste 0.2 -- -- 96
2021-01-09 03:00:00 -1 5 Oeste 8 Oeste 0 -- -- 96
2021-01-09 02:00:00 -1.1 4 Oeste 6 Oeste 0.4 -- -- 95
2021-01-09 01:00:00 -0.9 2 Norte 10 Norte 0.2 -- -- 93
2021-01-09 00:00:00 -0.6 5 Norte 10 Norte 0 -- -- 89
2021-01-08 23:00:00 -0.4 2 Noroeste 7 Oeste 0 -- -- 85
2021-01-08 22:00:00 -0.2 3 Sudeste 9 Este 0 -- -- 82
2021-01-08 21:00:00 -0.2 3 Este 8 Este 0 -- -- 82
2021-01-08 20:00:00 -0.3 6 Sudeste 9 Este 0 -- -- 82
2021-01-08 19:00:00 -0.3 4 Sudeste 7 Sudeste 0 -- -- 82
2021-01-08 18:00:00 0.4 3 Este 9 Sudeste 0 -- -- 79
2021-01-08 17:00:00 1.6 5 Sudeste 9 Sudeste 0 -- -- 72
2021-01-08 16:00:00 1.6 0 Calma 7 Oeste 0 -- -- 68
2021-01-08 15:00:00 1.5 3 Noroeste 10 Noroeste 0 -- -- 69
2021-01-08 14:00:00 1.2 3 Noroeste 12 Oeste 0 -- -- 70
2021-01-08 13:00:00 0.2 6 Oeste 13 Noroeste 0 -- -- 72
2021-01-08 12:00:00 -0.8 3 Noroeste 9 Noroeste 0 -- -- 79
2021-01-08 11:00:00 -2.3 0 Calma 4 Oeste 0 -- -- 88
2021-01-08 10:00:00 -4.5 3 Norte 8 Norte 0 -- -- 90
2021-01-08 09:00:00 -6.2 0 Calma 2 Nordeste 0 -- -- 90
2021-01-08 08:00:00 -6 0 Calma 3 Noroeste 0 -- -- 91
2021-01-08 07:00:00 -5.4 2 Norte 4 Noroeste 0 -- -- 93
2021-01-08 06:00:00 -5.1 3 Noroeste 8 Oeste 0 -- -- 91
2021-01-08 05:00:00 -4.2 4 Oeste 9 Noroeste 0 -- -- 91
2021-01-08 04:00:00 -3.9 7 Oeste 10 Oeste 0 -- -- 92
2021-01-08 03:00:00 -3.5 6 Oeste 9 Oeste 0 -- -- 91
2021-01-08 02:00:00 -2.5 6 Oeste 9 Oeste 0 -- -- 90
2021-01-08 01:00:00 -1.5 3 Norte 6 Norte 0 -- -- 88
2021-01-08 00:00:00 -0.5 5 Norte 8 Norte 0 -- -- 85
2021-01-07 23:00:00 -0.1 4 Norte 8 Norte 0 -- -- 84
2021-01-07 22:00:00 0.3 4 Norte 8 Noroeste 0 -- -- 84
2021-01-07 21:00:00 0.2 0 Calma 6 Norte 0 -- -- 86
2021-01-07 20:00:00 0.4 0 Calma 4 Noroeste 0 -- -- 86
2021-01-07 19:00:00 0.7 0 Calma 6 Oeste 0 -- -- 83
2021-01-07 18:00:00 1.1 4 Noroeste 12 Noroeste 0 -- -- 82
2021-01-07 17:00:00 1.5 7 Noroeste 14 Noroeste 0 -- -- 81
2021-01-07 16:00:00 1.6 8 Oeste 15 Oeste 0 -- -- 80
2021-01-07 15:00:00 1.3 4 Oeste 12 Oeste 0 -- -- 85
2021-01-07 14:00:00 0 5 Oeste 9 Oeste 0 -- -- 91
2021-01-07 13:00:00 -1.2 3 Noroeste 5 Noroeste 0 -- -- 96
2021-01-07 12:00:00 -2.2 0 Calma 6 Noroeste 0 -- -- 96
2021-01-07 11:00:00 -2.9 3 Noroeste 6 Noroeste 0 -- -- 97
2021-01-07 10:00:00 -3.2 2 Noroeste 6 Noroeste 0 -- -- 97
2021-01-07 09:00:00 -3.5 3 Oeste 8 Oeste 0 -- -- 97
2021-01-07 08:00:00 -3.9 4 Oeste 10 Oeste 0 -- -- 97
2021-01-07 07:00:00 -4.2 6 Oeste 10 Oeste 0 -- -- 96
2021-01-07 06:00:00 -4.1 5 Noroeste 9 Norte 0 -- -- 96
2021-01-07 05:00:00 -3.7 4 Noroeste 8 Norte 0 -- -- 97
2021-01-07 04:00:00 -4.1 4 Norte 6 Norte 0 -- -- 96
2021-01-07 03:00:00 -4.7 2 Norte 5 Norte 0 -- -- 95
2021-01-07 02:00:00 -3.6 0 Calma 5 Oeste 0 -- -- 97
2021-01-07 01:00:00 -3.8 2 Oeste 5 Noroeste 0 -- -- 95
2021-01-07 00:00:00 -3.5 0 Calma 6 Sudeste 0 -- -- 94
2021-01-06 23:00:00 -3.6 2 Sur 4 Norte 0 -- -- 91
2021-01-06 22:00:00 -2.9 2 Este 5 Este 0 -- -- 90
2021-01-06 21:00:00 -2.3 0 Calma 5 Sudoeste 0 -- -- 89
2021-01-06 20:00:00 -1.2 0 Calma 12 Este 0 -- -- 86
2021-01-06 19:00:00 -0.5 5 Este 10 Este 0 -- -- 85
2021-01-06 18:00:00 0.9 7 Este 14 Este 0 -- -- 80
2021-01-06 17:00:00 3.2 9 Sudeste 15 Este 0 -- -- 69
2021-01-06 16:00:00 5.3 6 Sudeste 17 Sudeste 0 -- -- 61
2021-01-06 15:00:00 4.3 4 Oeste 12 Oeste 0 -- -- 60
2021-01-06 14:00:00 3.8 3 Oeste 9 Oeste 0 -- -- 63
2021-01-06 13:00:00 2.3 4 Norte 8 Este 0 -- -- 68
2021-01-06 12:00:00 0.7 0 Calma 7 Norte 0 -- -- 76
2021-01-06 11:00:00 -1.3 0 Calma 5 Norte 0 -- -- 83
2021-01-06 10:00:00 -2.8 0 Calma 5 Oeste 0 -- -- 87
2021-01-06 09:00:00 -6.1 4 Oeste 5 Noroeste 0 -- -- 90
2021-01-06 08:00:00 -5.9 3 Norte 6 Noroeste 0 -- -- 89
2021-01-06 07:00:00 -5.7 2 Noroeste 6 Norte 0 -- -- 90
2021-01-06 06:00:00 -5.7 2 Norte 6 Noroeste 0 -- -- 90
2021-01-06 05:00:00 -5.3 0 Calma 4 Norte 0 -- -- 91
2021-01-06 04:00:00 -5 2 Norte 4 Norte 0 -- -- 90
2021-01-06 03:00:00 -4.2 0 Calma 7 Noroeste 0 -- -- 88
2021-01-06 02:00:00 -3.8 4 Noroeste 9 Norte 0 -- -- 92
2021-01-06 01:00:00 -3.2 2 Norte 5 Norte 0 -- -- 90
2021-01-06 00:00:00 -2.6 3 Noroeste 6 Noroeste 0 -- -- 84
2021-01-05 23:00:00 -1.2 3 Noroeste 8 Noroeste 0 -- -- 83
2021-01-05 22:00:00 -0.9 4 Noroeste 7 Noroeste 0 -- -- 81
2021-01-05 21:00:00 0 3 Noroeste 13 Oeste 0 -- -- 77
2021-01-05 20:00:00 1.5 8 Oeste 13 Oeste 0 -- -- 71
2021-01-05 19:00:00 2.9 6 Oeste 27 Oeste 0 -- -- 64
2021-01-05 18:00:00 4.7 12 Oeste 24 Oeste 0 -- -- 58
2021-01-05 17:00:00 6.1 8 Noroeste 27 Oeste 0 -- -- 52
2021-01-05 16:00:00 7.1 17 Oeste 35 Oeste 0 -- -- 47
2021-01-05 15:00:00 6.9 19 Oeste 33 Oeste 0 -- -- 51
2021-01-05 14:00:00 5.9 14 Oeste 27 Oeste 0 -- -- 61
2021-01-05 13:00:00 5.7 14 Oeste 26 Oeste 0 -- -- 63
2021-01-05 12:00:00 4.2 3 Sudoeste 11 Sudeste 0 -- -- 72
2021-01-05 11:00:00 2.5 0 Calma 6 Sudeste 0 -- -- 79
2021-01-05 10:00:00 0.1 5 Norte 8 Norte 0 -- -- 89
2021-01-05 09:00:00 -2.6 3 Sudeste 6 Norte 0 -- -- 92
2021-01-05 08:00:00 -2.1 3 Este 11 Noroeste 0 -- -- 88
2021-01-05 07:00:00 -1.4 5 Noroeste 12 Noroeste 0 -- -- 90
2021-01-05 06:00:00 -0.8 4 Noroeste 16 Noroeste 0 -- -- 89
2021-01-05 05:00:00 -0.8 9 Noroeste 17 Noroeste 0 -- -- 89
2021-01-05 04:00:00 -0.4 4 Oeste 19 Oeste 0 -- -- 86
2021-01-05 03:00:00 0.1 9 Noroeste 24 Oeste 0 -- -- 85
2021-01-05 02:00:00 0.7 15 Oeste 28 Oeste 0 -- -- 84
2021-01-05 01:00:00 0.5 10 Oeste 20 Oeste 0 -- -- 86
2021-01-05 00:00:00 0.8 6 Noroeste 20 Oeste 0 -- -- 84
2021-01-04 23:00:00 1.1 11 Oeste 25 Oeste 0 -- -- 83
2021-01-04 22:00:00 1.9 13 Oeste 26 Oeste 0 -- -- 79
2021-01-04 21:00:00 2.7 9 Oeste 21 Oeste 0 -- -- 74
2021-01-04 20:00:00 3.6 8 Oeste 13 Oeste 0 -- -- 68
2021-01-04 19:00:00 3.8 5 Oeste 12 Oeste 0 -- -- 66
2021-01-04 18:00:00 4.4 8 Oeste 21 Oeste 0 -- -- 65
2021-01-04 17:00:00 5.2 13 Oeste 28 Oeste 0 -- -- 59
2021-01-04 16:00:00 5.5 12 Oeste 25 Noroeste 0 -- -- 61
2021-01-04 15:00:00 5.6 14 Noroeste 28 Oeste 0 -- -- 62
2021-01-04 14:00:00 6.8 13 Oeste 23 Oeste 0 -- -- 50
2021-01-04 13:00:00 6.4 4 Oeste 13 Oeste 0 -- -- 60
2021-01-04 12:00:00 5.1 3 Noroeste 8 Noroeste 0 -- -- 71
2021-01-04 11:00:00 3 0 Calma 6 Norte 0 -- -- 82
2021-01-04 10:00:00 0.4 2 Sudeste 5 Este 0 -- -- 92
2021-01-04 09:00:00 -1.4 2 Noroeste 5 Noroeste 0 -- -- 95
2021-01-04 08:00:00 -1.5 2 Nordeste 7 Noroeste 0 -- -- 94
2021-01-04 07:00:00 -1.7 4 Norte 6 Nordeste 0 -- -- 95
2021-01-04 06:00:00 -1.5 0 Calma 8 Oeste 0 -- -- 92
2021-01-04 05:00:00 -0.9 5 Oeste 8 Oeste 0 -- -- 91
2021-01-04 04:00:00 -0.2 5 Noroeste 10 Oeste 0 -- -- 91
2021-01-04 03:00:00 0.4 6 Oeste 15 Oeste 0 -- -- 90
2021-01-04 02:00:00 0.8 10 Oeste 22 Oeste 0 -- -- 89
2021-01-04 01:00:00 1.8 7 Noroeste 20 Oeste 0 -- -- 85
2021-01-04 00:00:00 2.1 10 Oeste 26 Oeste 0 -- -- 81
2021-01-03 23:00:00 2.8 13 Oeste 24 Oeste 0 -- -- 73
2021-01-03 22:00:00 2.6 5 Oeste 14 Oeste 0 -- -- 73
2021-01-03 21:00:00 3.3 6 Oeste 22 Oeste 0 -- -- 72
2021-01-03 20:00:00 3.7 8 Oeste 26 Oeste 0 -- -- 71
2021-01-03 19:00:00 4.8 12 Oeste 30 Oeste 0 -- -- 67
2021-01-03 18:00:00 5.9 15 Oeste 37 Oeste 0 -- -- 62
2021-01-03 17:00:00 7.4 22 Oeste 40 Oeste 0 -- -- 55
2021-01-03 16:00:00 8.1 26 Oeste 55 Oeste 0 -- -- 53
2021-01-03 15:00:00 8 33 Oeste 59 Oeste 0 -- -- 55
2021-01-03 14:00:00 7.9 30 Oeste 50 Oeste 0 -- -- 53
2021-01-03 13:00:00 7.4 29 Oeste 51 Oeste 0 -- -- 53
2021-01-03 12:00:00 6.3 27 Oeste 43 Oeste 0 -- -- 55
2021-01-03 11:00:00 4.3 17 Oeste 30 Oeste 0 -- -- 60
2021-01-03 10:00:00 1.8 13 Oeste 22 Oeste 0 -- -- 69
2021-01-03 09:00:00 -0.7 10 Oeste 16 Oeste 0 -- -- 75
2021-01-03 08:00:00 -1.3 4 Noroeste 19 Oeste 0 -- -- 75
2021-01-03 07:00:00 -0.3 12 Oeste 24 Oeste 0 -- -- 70
2021-01-03 06:00:00 0.1 15 Oeste 32 Oeste 0 -- -- 65
2021-01-03 05:00:00 0.1 18 Oeste 37 Oeste 0 -- -- 59
2021-01-03 04:00:00 0.3 19 Oeste 34 Oeste 0 -- -- 60
2021-01-03 03:00:00 0.4 16 Oeste 36 Oeste 0 -- -- 59
2021-01-03 02:00:00 0.9 22 Oeste 41 Oeste 0 -- -- 57
2021-01-03 01:00:00 1.3 22 Oeste 40 Oeste 0 -- -- 57
2021-01-03 00:00:00 1.7 23 Oeste 45 Oeste 0 -- -- 53
2021-01-02 23:00:00 1.9 24 Oeste 46 Oeste 0 -- -- 53
2021-01-02 22:00:00 2.1 24 Oeste 46 Oeste 0 -- -- 54
2021-01-02 21:00:00 2.1 23 Oeste 41 Oeste 0 -- -- 53
2021-01-02 20:00:00 2.3 25 Oeste 44 Oeste 0 -- -- 51
2021-01-02 19:00:00 2.6 22 Oeste 40 Oeste 0 -- -- 50
2021-01-02 18:00:00 4.4 24 Oeste 47 Oeste 0 -- -- 41
2021-01-02 17:00:00 5.9 24 Oeste 44 Oeste 0 -- -- 36
2021-01-02 16:00:00 8 23 Oeste 40 Oeste 0 -- -- 34
2021-01-02 15:00:00 8.8 23 Oeste 44 Oeste 0 -- -- 38
2021-01-02 14:00:00 9.2 22 Oeste 37 Oeste 0 -- -- 42